Time;durP1;ratioP1;P1;durP2;ratioP2;P2;SDS_P1;SDS_P2;PMS_P1;PMS_P2;Temp;Humidity;BMP_temperature;BMP_pressure;BME280_temperature;BME280_humidity;BME280_pressure;Samples;Min_cycle;Max_cycle;Signal;HPM_P1;HPM_P2
2021/04/08 00:02:14;;;;;;;6.03;1.43;;;;;;;0.63;100.00;98357.52;3615893;80;44034;-22
2021/04/08 00:07:20;;;;;;;5.07;1.63;;;;;;;0.64;100.00;98365.84;3628087;79;42951;-22
2021/04/08 00:12:26;;;;;;;3.47;1.50;;;;;;;0.63;100.00;98368.95;3701736;79;43671;-23
2021/04/08 00:17:32;;;;;;;8.03;1.43;;;;;;;0.69;100.00;98375.66;3685989;79;43494;-23
2021/04/08 00:22:38;;;;;;;2.50;1.43;;;;;;;0.68;100.00;98384.56;3690455;79;44052;-22
2021/04/08 00:27:44;;;;;;;3.23;1.33;;;;;;;0.71;100.00;98385.20;3688190;79;43670;-22
2021/04/08 00:32:50;;;;;;;6.30;1.30;;;;;;;0.79;100.00;98392.66;3689669;79;44482;-22
2021/04/08 00:37:56;;;;;;;6.80;1.50;;;;;;;0.78;100.00;98384.33;3676447;79;44065;-22
2021/04/08 00:43:03;;;;;;;5.70;1.53;;;;;;;0.81;100.00;98392.09;3678108;79;43676;-22
2021/04/08 00:48:09;;;;;;;3.70;1.13;;;;;;;0.80;100.00;98393.05;3670400;79;43061;-22
2021/04/08 00:53:18;;;;;;;8.00;1.70;;;;;;;0.74;100.00;98399.60;3675333;79;43376;-22
2021/04/08 00:58:24;;;;;;;3.73;1.37;;;;;;;0.76;100.00;98420.73;3665181;79;43709;-22
2021/04/08 01:03:31;;;;;;;6.07;1.90;;;;;;;0.75;100.00;98409.75;3672645;79;44097;-22
2021/04/08 01:08:37;;;;;;;4.13;1.70;;;;;;;0.70;100.00;98425.09;3669625;79;44190;-22
2021/04/08 01:13:44;;;;;;;6.17;2.03;;;;;;;0.66;100.00;98418.27;3664678;79;43452;-22
2021/04/08 01:18:56;;;;;;;4.30;1.90;;;;;;;0.66;100.00;98421.80;3667112;79;43242;-21
2021/04/08 01:24:37;;;;;;;7.53;2.50;;;;;;;0.55;100.00;98435.72;3661975;79;43435;-24
2021/04/08 01:29:58;;;;;;;6.50;2.40;;;;;;;0.56;100.00;98436.11;3654350;79;43360;-23
2021/04/08 01:35:06;;;;;;;4.27;1.67;;;;;;;0.55;100.00;98430.91;3652706;79;43672;-22
2021/04/08 01:40:14;;;;;;;6.80;1.73;;;;;;;0.58;100.00;98440.84;3675737;79;44092;-23
2021/04/08 01:45:22;;;;;;;5.83;1.67;;;;;;;0.57;100.00;98446.25;3652724;79;43394;-21
2021/04/08 01:50:29;;;;;;;9.13;2.37;;;;;;;0.59;100.00;98461.10;3646081;79;44537;-21
2021/04/08 01:55:38;;;;;;;3.37;1.67;;;;;;;0.53;100.00;98460.64;3648287;79;43492;-21
2021/04/08 02:00:45;;;;;;;4.77;2.20;;;;;;;0.47;100.00;98473.80;3673135;79;44083;-22
2021/04/08 02:05:52;;;;;;;2.77;1.83;;;;;;;0.44;100.00;98468.69;3656654;79;43132;-21
2021/04/08 02:10:58;;;;;;;5.07;2.23;;;;;;;0.38;100.00;98481.84;3702106;78;44021;-21
2021/04/08 02:16:05;;;;;;;6.23;2.43;;;;;;;0.29;100.00;98503.62;3721816;78;43384;-21
2021/04/08 02:21:12;;;;;;;5.43;2.53;;;;;;;0.23;100.00;98494.25;3712673;78;43699;-24
2021/04/08 02:26:19;;;;;;;4.13;1.90;;;;;;;0.26;100.00;98487.91;3704799;78;43361;-21
2021/04/08 02:31:26;;;;;;;6.80;2.07;;;;;;;0.33;100.00;98497.66;3710198;78;43992;-19
2021/04/08 02:36:32;;;;;;;5.93;2.10;;;;;;;0.30;100.00;98499.55;3695886;78;44115;-19
2021/04/08 02:41:40;;;;;;;7.27;2.63;;;;;;;0.32;100.00;98502.58;3706710;78;44426;-19
2021/04/08 02:46:46;;;;;;;7.80;2.70;;;;;;;0.33;100.00;98522.83;3699505;78;43685;-19
2021/04/08 02:51:56;;;;;;;5.67;2.50;;;;;;;0.37;100.00;98517.73;3710074;78;43396;-19
2021/04/08 02:57:03;;;;;;;5.40;2.50;;;;;;;0.33;100.00;98527.67;3697419;78;43661;-19
2021/04/08 03:02:12;;;;;;;4.07;2.30;;;;;;;0.32;100.00;98531.72;3694042;78;44043;-22
2021/04/08 03:07:21;;;;;;;3.63;1.90;;;;;;;0.28;100.00;98535.91;3691430;78;44064;-22
2021/04/08 03:12:29;;;;;;;5.23;1.90;;;;;;;0.29;100.00;98531.45;3688752;78;44515;-22
2021/04/08 03:17:37;;;;;;;4.80;1.67;;;;;;;0.30;100.00;98543.27;3684755;78;44001;-23
2021/04/08 03:22:46;;;;;;;6.37;3.03;;;;;;;0.34;100.00;98556.34;3693788;78;44669;-22
2021/04/08 03:27:53;;;;;;;4.83;2.10;;;;;;;0.38;100.00;98557.87;3681534;78;44086;-22
2021/04/08 03:32:59;;;;;;;8.27;2.90;;;;;;;0.41;100.00;98565.16;3680074;78;43949;-22
2021/04/08 03:38:07;;;;;;;6.93;2.83;;;;;;;0.45;100.00;98565.81;3693398;78;44107;-21
2021/04/08 03:43:15;;;;;;;7.37;2.60;;;;;;;0.43;100.00;98567.70;3674389;78;43445;-22
2021/04/08 03:48:23;;;;;;;5.73;2.40;;;;;;;0.46;100.00;98580.78;3674192;78;43391;-22
2021/04/08 03:53:30;;;;;;;5.47;2.30;;;;;;;0.47;100.00;98585.13;3668543;78;44151;-22
2021/04/08 03:58:38;;;;;;;4.70;2.00;;;;;;;0.51;100.00;98581.81;3718614;78;44216;-22
2021/04/08 04:03:45;;;;;;;4.97;2.23;;;;;;;0.42;100.00;98589.84;3685121;78;43687;-22
2021/04/08 04:08:51;;;;;;;6.27;2.30;;;;;;;0.40;100.00;98593.09;3709165;78;43374;-21
2021/04/08 04:13:58;;;;;;;8.67;2.20;;;;;;;0.32;100.00;98612.55;3668886;79;44794;-22
2021/04/08 04:19:05;;;;;;;5.23;2.47;;;;;;;0.29;100.00;98605.16;3671982;79;44056;-22
2021/04/08 04:24:12;;;;;;;7.80;2.70;;;;;;;0.30;100.00;98612.17;3679266;79;43700;-22
2021/04/08 04:29:18;;;;;;;10.00;3.07;;;;;;;0.31;100.00;98620.98;3673000;79;44029;-22
2021/04/08 04:34:24;;;;;;;12.40;2.60;;;;;;;0.29;100.00;98624.20;3688794;79;44014;-23
2021/04/08 04:39:33;;;;;;;7.37;2.97;;;;;;;0.23;100.00;98628.06;3669152;79;44466;-23
2021/04/08 04:44:40;;;;;;;7.87;3.00;;;;;;;0.27;100.00;98621.66;3671175;79;43735;-20
2021/04/08 04:49:51;;;;;;;9.00;2.90;;;;;;;0.24;100.00;98620.50;3667512;79;43196;-25
2021/04/08 04:54:57;;;;;;;6.30;2.90;;;;;;;0.26;100.00;98623.92;3666237;79;43435;-24
2021/04/08 05:00:03;;;;;;;8.43;3.00;;;;;;;0.30;100.00;98630.72;3666123;79;43471;-22
2021/04/08 05:05:12;;;;;;;7.73;3.10;;;;;;;0.32;100.00;98635.95;3664356;79;43946;-22
2021/04/08 05:10:18;;;;;;;6.03;2.80;;;;;;;0.38;100.00;98634.73;3673404;78;44029;-22
2021/04/08 05:15:23;;;;;;;8.07;2.73;;;;;;;0.37;100.00;98656.88;3685823;78;44053;-22
2021/04/08 05:20:31;;;;;;;7.83;3.30;;;;;;;0.36;100.00;98678.53;3685535;78;43985;-22
2021/04/08 05:25:36;;;;;;;6.67;3.00;;;;;;;0.39;100.00;98664.27;3684135;78;44538;-22
2021/04/08 05:30:42;;;;;;;10.03;3.90;;;;;;;0.39;100.00;98670.89;3677959;78;43382;-22
2021/04/08 05:35:48;;;;;;;9.87;3.37;;;;;;;0.42;100.00;98685.27;3672916;78;44401;-22
2021/04/08 05:40:55;;;;;;;6.93;2.60;;;;;;;0.42;100.00;98699.39;3687314;78;44380;-22
2021/04/08 05:46:01;;;;;;;10.37;3.30;;;;;;;0.41;100.00;98712.75;3609141;80;43679;-23
2021/04/08 05:51:08;;;;;;;10.60;3.37;;;;;;;0.43;100.00;98719.66;3675429;78;43705;-23
2021/04/08 05:56:14;;;;;;;7.57;3.27;;;;;;;0.50;100.00;98708.68;3699006;78;43677;-23
2021/04/08 06:01:20;;;;;;;7.43;3.10;;;;;;;0.55;100.00;98735.78;3677514;78;43708;-24
2021/04/08 06:06:26;;;;;;;7.43;3.37;;;;;;;0.52;100.00;98735.50;3710816;78;43974;-23
2021/04/08 06:11:34;;;;;;;8.77;3.27;;;;;;;0.52;100.00;98726.68;3704332;78;43705;-23
2021/04/08 06:16:40;;;;;;;10.97;3.20;;;;;;;0.45;100.00;98742.09;3676483;79;43709;-24
2021/04/08 06:21:46;;;;;;;9.70;3.37;;;;;;;0.56;100.00;98751.59;3686024;79;43408;-23
2021/04/08 06:26:51;;;;;;;5.10;3.23;;;;;;;0.59;100.00;98761.16;3676396;79;43683;-22
2021/04/08 06:31:58;;;;;;;5.90;3.50;;;;;;;0.68;100.00;98761.97;3682073;79;43713;-22
2021/04/08 06:37:04;;;;;;;8.33;3.10;;;;;;;0.85;100.00;98771.58;3667923;79;43497;-21
2021/04/08 06:42:14;;;;;;;8.97;3.47;;;;;;;0.97;100.00;98775.77;3675663;79;45247;-24
2021/04/08 06:47:22;;;;;;;5.97;3.10;;;;;;;1.08;100.00;98783.45;3667487;79;43412;-23
2021/04/08 06:52:29;;;;;;;5.80;3.23;;;;;;;1.13;100.00;98787.15;3668755;79;43765;-22
2021/04/08 06:57:37;;;;;;;6.73;3.20;;;;;;;1.14;100.00;98782.23;3578428;82;43647;-23
2021/04/08 07:02:43;;;;;;;8.73;2.97;;;;;;;1.32;100.00;98785.56;3671533;79;43742;-23
2021/04/08 07:07:49;;;;;;;7.53;2.90;;;;;;;1.37;100.00;98804.73;3666942;79;44508;-23
2021/04/08 07:12:56;;;;;;;6.53;3.23;;;;;;;1.61;100.00;98794.88;3686896;78;43388;-23
2021/04/08 07:18:02;;;;;;;7.27;3.33;;;;;;;1.66;100.00;98804.72;3663343;79;43461;-23
2021/04/08 07:23:13;;;;;;;8.93;3.27;;;;;;;1.71;100.00;98812.41;3665437;79;44580;-24
2021/04/08 07:28:36;;;;;;;8.63;3.03;;;;;;;1.71;100.00;98820.86;3659704;79;43986;-24
2021/04/08 07:33:43;;;;;;;6.50;3.40;;;;;;;2.03;100.00;98821.96;3654706;79;43294;-22
2021/04/08 07:38:51;;;;;;;5.30;3.20;;;;;;;2.03;100.00;98834.79;3653566;79;43693;-25
2021/04/08 07:44:02;;;;;;;14.00;4.30;;;;;;;2.03;100.00;98848.08;3646648;79;44009;-24
2021/04/08 07:49:27;;;;;;;6.63;2.80;;;;;;;2.00;100.00;98840.30;3668324;79;44140;-23
2021/04/08 07:54:33;;;;;;;5.90;3.67;;;;;;;1.84;100.00;98851.88;3614073;79;43393;-23
2021/04/08 07:59:40;;;;;;;6.50;3.13;;;;;;;1.63;100.00;98865.15;3581692;81;43306;-23
2021/04/08 08:04:45;;;;;;;9.33;4.10;;;;;;;1.34;100.00;98876.59;3607237;81;44054;-22
2021/04/08 08:09:51;;;;;;;7.67;3.67;;;;;;;1.51;100.00;98866.77;3594144;81;43369;-23
2021/04/08 08:15:12;;;;;;;8.27;3.40;;;;;;;1.68;100.00;98879.86;3682126;79;43372;-23
2021/04/08 08:20:19;;;;;;;8.67;3.17;;;;;;;2.55;100.00;98877.13;3678612;79;43515;-23
2021/04/08 08:25:28;;;;;;;5.97;2.87;;;;;;;2.62;100.00;98885.08;3622409;80;43702;-23
2021/04/08 08:30:52;;;;;;;10.90;3.50;;;;;;;2.75;100.00;98882.49;3677391;79;44049;-23
2021/04/08 08:35:45;;;;;;;7.60;3.40;;;;;;;2.45;100.00;98898.14;3669286;79;44045;-23
2021/04/08 08:40:51;;;;;;;9.33;3.30;;;;;;;2.55;100.00;98896.20;3676632;79;43686;-23
2021/04/08 08:45:57;;;;;;;5.60;3.20;;;;;;;2.37;100.00;98899.56;3666967;79;44816;-24
2021/04/08 08:51:04;;;;;;;7.27;3.17;;;;;;;2.80;100.00;98902.60;3664177;79;43741;-22
2021/04/08 08:56:11;;;;;;;6.53;2.60;;;;;;;3.23;96.31;98890.47;3664562;79;44026;-23
2021/04/08 09:01:17;;;;;;;3.77;2.43;;;;;;;3.00;92.09;98898.15;3659271;79;44014;-23
2021/04/08 09:06:24;;;;;;;4.40;2.80;;;;;;;3.27;88.96;98919.06;3661670;79;43685;-23
2021/04/08 09:11:32;;;;;;;6.60;2.50;;;;;;;2.82;90.83;98901.58;3655205;79;44025;-23
2021/04/08 09:16:45;;;;;;;4.67;2.77;;;;;;;3.15;89.29;98914.94;3661695;79;43996;-23
2021/04/08 09:21:53;;;;;;;7.50;2.50;;;;;;;2.87;93.46;98911.42;3656844;79;43769;-23
2021/04/08 09:27:01;;;;;;;4.77;2.63;;;;;;;3.17;88.82;98912.16;3651179;79;44010;-24
2021/04/08 09:32:30;;;;;;;6.23;2.80;;;;;;;3.36;89.27;98915.29;3645796;79;43718;-23
2021/04/08 09:38:29;;;;;;;4.80;2.40;;;;;;;3.42;89.13;98913.18;3643483;79;44050;-23
2021/04/08 09:43:36;;;;;;;3.00;2.23;;;;;;;3.76;86.17;98921.53;3658717;79;44007;-23
2021/04/08 09:48:48;;;;;;;11.63;3.03;;;;;;;3.45;86.91;98916.98;3679002;79;43620;-23
2021/04/08 09:54:19;;;;;;;6.33;2.30;;;;;;;3.52;84.75;98914.27;3688459;79;43764;-23
2021/04/08 09:59:27;;;;;;;7.07;2.90;;;;;;;4.29;83.08;98934.25;3684947;79;43377;-23
2021/04/08 10:04:33;;;;;;;6.50;2.43;;;;;;;4.09;75.38;98929.48;3682946;79;44242;-23
2021/04/08 10:09:39;;;;;;;3.83;2.40;;;;;;;4.07;79.55;98926.06;3675898;79;44067;-23
2021/04/08 10:14:44;;;;;;;5.90;2.47;;;;;;;3.73;73.65;98924.41;3698312;78;44013;-23
2021/04/08 10:19:50;;;;;;;5.53;2.20;;;;;;;3.97;78.14;98939.20;3697906;78;43338;-23
2021/04/08 10:25:00;;;;;;;4.60;2.40;;;;;;;3.89;80.45;98930.86;3704211;78;44062;-23
2021/04/08 10:30:18;;;;;;;5.00;2.10;;;;;;;3.79;78.65;98935.50;3699589;78;44008;-23
2021/04/08 10:35:27;;;;;;;5.07;2.37;;;;;;;4.50;80.91;98934.17;3692668;78;44109;-23
2021/04/08 10:40:33;;;;;;;5.17;2.20;;;;;;;4.39;78.47;98925.13;3696645;78;44040;-23
2021/04/08 10:45:41;;;;;;;4.97;1.93;;;;;;;4.10;81.19;98932.52;3691518;78;43984;-23
2021/04/08 10:50:48;;;;;;;4.17;1.90;;;;;;;4.29;80.23;98932.08;3688685;78;44066;-23
2021/04/08 10:55:55;;;;;;;4.67;1.80;;;;;;;4.67;71.61;98936.49;3697549;78;44081;-24
2021/04/08 11:01:04;;;;;;;4.37;2.00;;;;;;;4.50;68.48;98931.03;3687688;78;43693;-24
2021/04/08 11:06:23;;;;;;;4.53;2.10;;;;;;;5.12;68.90;98937.71;3682997;78;43677;-24
2021/04/08 11:11:29;;;;;;;4.60;1.93;;;;;;;4.70;67.93;98937.61;3680069;78;43689;-24
2021/04/08 11:16:36;;;;;;;4.37;2.30;;;;;;;4.79;67.57;98948.08;3657426;78;44563;-24
2021/04/08 11:21:42;;;;;;;3.37;1.43;;;;;;;4.68;70.43;98948.00;3654037;79;44059;-24
2021/04/08 11:26:56;;;;;;;3.23;2.20;;;;;;;4.35;66.60;98947.63;3644211;79;43770;-24
2021/04/08 11:32:04;;;;;;;3.77;2.27;;;;;;;4.38;68.53;98958.09;3673555;79;43452;-23
2021/04/08 11:37:11;;;;;;;3.03;1.80;;;;;;;4.30;71.19;98964.46;3684473;79;43673;-23
2021/04/08 11:42:22;;;;;;;2.47;1.60;;;;;;;3.59;71.63;98978.15;3641312;79;44412;-23
2021/04/08 11:47:29;;;;;;;3.53;1.80;;;;;;;3.84;73.26;98971.16;3678412;79;44452;-23
2021/04/08 11:52:35;;;;;;;4.33;2.00;;;;;;;3.76;69.05;98966.38;3684400;79;44006;-23
2021/04/08 11:57:55;;;;;;;4.67;2.00;;;;;;;3.93;69.10;98967.89;3676770;79;43452;-22
2021/04/08 12:03:14;;;;;;;4.73;2.00;;;;;;;4.21;69.08;98960.62;3682871;79;44057;-22
2021/04/08 12:08:42;;;;;;;3.10;2.00;;;;;;;4.08;71.80;98958.43;3676627;79;43999;-23
2021/04/08 12:14:02;;;;;;;5.90;1.90;;;;;;;4.00;69.03;98977.16;3682062;79;43726;-23
2021/04/08 12:19:09;;;;;;;3.73;1.60;;;;;;;3.97;69.53;98971.19;3604293;80;44010;-22
2021/04/08 12:24:15;;;;;;;3.80;1.70;;;;;;;3.97;66.90;98972.03;3601353;80;43684;-22
2021/04/08 12:29:21;;;;;;;2.83;1.50;;;;;;;4.01;67.24;98970.88;3588966;81;44209;-22
2021/04/08 12:34:27;;;;;;;1.63;1.43;;;;;;;4.29;65.40;98973.42;3589177;81;44046;-23
2021/04/08 12:39:33;;;;;;;3.30;1.57;;;;;;;4.34;60.86;98967.76;3586987;81;43363;-24
2021/04/08 12:44:41;;;;;;;3.70;1.60;;;;;;;4.65;64.16;98960.23;3584945;81;43720;-22
2021/04/08 12:49:47;;;;;;;3.30;1.80;;;;;;;4.69;61.51;98979.08;3574895;81;42703;-23
2021/04/08 12:54:54;;;;;;;3.03;1.90;;;;;;;4.60;62.15;98964.56;3572864;81;43365;-25
2021/04/08 13:00:02;;;;;;;2.47;1.80;;;;;;;4.75;62.97;98973.31;3569500;81;44721;-23
2021/04/08 13:05:10;;;;;;;2.53;1.87;;;;;;;4.81;65.07;98983.53;3569588;81;44053;-23
2021/04/08 13:10:16;;;;;;;3.23;2.40;;;;;;;4.68;63.17;98976.03;3572234;81;44122;-25
2021/04/08 13:15:22;;;;;;;5.00;2.20;;;;;;;4.61;67.11;98977.81;3575065;81;44069;-23
2021/04/08 13:20:29;;;;;;;4.17;1.60;;;;;;;4.28;69.60;98989.92;3578762;81;43669;-23
2021/04/08 13:25:35;;;;;;;3.07;1.57;;;;;;;3.92;64.82;98987.50;3594793;81;43326;-23
2021/04/08 13:30:42;;;;;;;3.17;1.57;;;;;;;4.21;67.53;98982.45;3589581;81;43361;-23
2021/04/08 13:35:47;;;;;;;4.00;1.90;;;;;;;4.39;64.71;98986.98;3557053;81;43467;-23
2021/04/08 13:40:53;;;;;;;2.37;1.60;;;;;;;4.51;62.93;98978.11;3608119;81;43734;-23
2021/04/08 13:45:59;;;;;;;3.20;1.63;;;;;;;5.04;57.58;98975.66;3605903;81;43428;-24
2021/04/08 13:51:06;;;;;;;2.83;1.63;;;;;;;4.79;61.91;98974.77;3595616;81;42913;-23
2021/04/08 13:56:12;;;;;;;3.67;1.90;;;;;;;4.41;63.30;98973.05;3592536;81;43309;-23
2021/04/08 14:01:18;;;;;;;3.43;1.80;;;;;;;4.18;63.24;98965.32;3581799;81;43991;-23
2021/04/08 14:06:25;;;;;;;2.80;2.20;;;;;;;4.20;70.13;98965.58;3592739;81;43360;-23
2021/04/08 14:11:31;;;;;;;3.83;2.43;;;;;;;4.10;68.94;98968.05;3588142;81;43706;-23
2021/04/08 14:16:37;;;;;;;7.20;2.60;;;;;;;4.18;67.78;98970.16;3594473;80;44043;-23
2021/04/08 14:21:45;;;;;;;6.43;2.53;;;;;;;4.36;68.37;98963.17;3593823;80;44506;-25
2021/04/08 14:26:53;;;;;;;3.80;2.40;;;;;;;4.54;63.75;98953.85;3600087;80;44000;-23
2021/04/08 14:32:00;;;;;;;4.20;2.30;;;;;;;4.71;65.22;98950.46;3596156;80;44031;-22
2021/04/08 14:37:08;;;;;;;4.47;2.30;;;;;;;4.80;65.38;98944.45;3595996;80;43344;-22
2021/04/08 14:42:17;;;;;;;3.87;2.30;;;;;;;4.65;61.62;98941.55;3594589;80;43336;-22
2021/04/08 14:47:23;;;;;;;4.90;2.23;;;;;;;4.59;60.77;98936.17;3587901;80;43726;-22
2021/04/08 14:52:30;;;;;;;5.47;2.67;;;;;;;4.47;61.23;98938.76;3579084;80;43341;-23
2021/04/08 14:57:37;;;;;;;3.57;2.60;;;;;;;4.45;66.24;98927.83;3584496;80;43389;-23
2021/04/08 15:02:45;;;;;;;5.10;2.77;;;;;;;4.28;67.85;98939.24;3597142;80;43678;-24
2021/04/08 15:07:51;;;;;;;4.13;2.43;;;;;;;4.30;69.50;98938.62;3578222;80;43676;-24
2021/04/08 15:12:56;;;;;;;7.87;2.77;;;;;;;4.38;65.79;98933.25;3577713;80;44097;-23
2021/04/08 15:18:02;;;;;;;6.57;2.63;;;;;;;4.27;65.30;98934.87;3574298;80;44079;-23
2021/04/08 15:23:08;;;;;;;5.13;3.03;;;;;;;4.28;64.99;98935.24;3582873;80;43351;-23
2021/04/08 15:28:16;;;;;;;5.87;2.40;;;;;;;4.31;65.90;98926.16;3600421;80;43122;-23
2021/04/08 15:33:22;;;;;;;5.17;2.77;;;;;;;4.41;67.33;98917.87;3665458;79;44028;-23
2021/04/08 15:38:28;;;;;;;5.20;2.60;;;;;;;4.42;66.46;98920.04;3686546;79;44054;-23
2021/04/08 15:43:34;;;;;;;3.73;2.50;;;;;;;4.49;63.08;98917.32;3692246;79;44028;-24
2021/04/08 15:48:40;;;;;;;3.87;2.40;;;;;;;5.25;58.48;98928.66;3669947;79;44159;-24
2021/04/08 15:53:46;;;;;;;3.80;2.60;;;;;;;5.55;57.85;98921.11;3685241;79;43668;-24
2021/04/08 15:58:52;;;;;;;6.03;2.83;;;;;;;5.02;59.93;98916.17;3679283;79;44052;-23
2021/04/08 16:04:00;;;;;;;3.53;2.53;;;;;;;4.81;62.73;98914.13;3680145;79;44525;-23
2021/04/08 16:09:07;;;;;;;5.20;3.10;;;;;;;4.60;61.01;98922.73;3680671;79;44388;-20
2021/04/08 16:14:13;;;;;;;4.37;3.00;;;;;;;4.48;62.25;98919.61;3684115;79;44452;-24
2021/04/08 16:19:19;;;;;;;6.23;2.60;;;;;;;4.47;62.96;98916.08;3665700;79;44172;-25
2021/04/08 16:24:25;;;;;;;4.13;2.90;;;;;;;4.43;61.47;98909.74;3609606;80;43314;-24
2021/04/08 16:29:30;;;;;;;5.67;3.10;;;;;;;4.32;62.10;98912.70;3658776;79;44444;-24
2021/04/08 16:34:37;;;;;;;6.20;2.97;;;;;;;4.30;64.85;98903.11;3664490;79;43689;-23
2021/04/08 16:39:43;;;;;;;7.17;3.00;;;;;;;4.21;61.97;98909.95;3601921;80;44133;-23
2021/04/08 16:44:50;;;;;;;4.87;3.00;;;;;;;4.17;62.46;98911.14;3660686;79;43677;-23
2021/04/08 16:49:57;;;;;;;5.03;3.00;;;;;;;4.15;64.38;98913.90;3653218;79;44148;-24
2021/04/08 16:55:05;;;;;;;5.93;3.00;;;;;;;4.16;64.29;98919.61;3588817;80;43104;-23
2021/04/08 17:00:14;;;;;;;5.70;3.00;;;;;;;4.23;63.99;98914.70;3646368;79;43685;-23
2021/04/08 17:05:20;;;;;;;5.20;3.00;;;;;;;4.39;65.56;98905.11;3642729;79;43967;-23
2021/04/08 17:10:26;;;;;;;5.17;2.87;;;;;;;4.28;63.70;98901.90;3598060;80;43370;-24
2021/04/08 17:15:33;;;;;;;3.80;3.03;;;;;;;4.26;61.71;98898.95;3639535;79;44240;-23
2021/04/08 17:20:39;;;;;;;5.90;2.93;;;;;;;4.16;63.15;98890.27;3685756;79;43679;-24
2021/04/08 17:25:46;;;;;;;8.87;3.70;;;;;;;3.96;63.64;98898.34;3673457;79;44058;-23
2021/04/08 17:30:53;;;;;;;5.43;3.10;;;;;;;3.91;65.72;98905.83;3685998;79;43630;-23
2021/04/08 17:35:58;;;;;;;5.30;3.40;;;;;;;3.92;68.16;98903.53;3690203;79;43377;-23
2021/04/08 17:41:05;;;;;;;5.13;3.20;;;;;;;3.83;65.95;98901.48;3688755;79;44480;-23
2021/04/08 17:46:11;;;;;;;4.87;3.00;;;;;;;3.84;67.00;98895.20;3679093;79;44636;-23
2021/04/08 17:51:17;;;;;;;5.67;2.93;;;;;;;3.78;67.11;98891.64;3658557;79;43586;-23
2021/04/08 17:56:23;;;;;;;5.07;2.90;;;;;;;3.72;66.12;98890.25;3681737;79;43362;-23
2021/04/08 18:01:29;;;;;;;6.37;3.67;;;;;;;3.72;68.32;98890.25;3660479;79;43721;-23
2021/04/08 18:06:35;;;;;;;5.13;3.33;;;;;;;3.65;67.85;98891.16;3665820;79;43708;-23
2021/04/08 18:11:41;;;;;;;5.47;3.30;;;;;;;3.62;66.59;98895.36;3668820;79;44003;-23
2021/04/08 18:16:47;;;;;;;6.63;3.40;;;;;;;3.59;67.15;98886.23;3663416;79;43302;-23
2021/04/08 18:21:53;;;;;;;5.23;2.77;;;;;;;3.57;68.58;98883.30;3662207;79;42885;-23
2021/04/08 18:26:59;;;;;;;4.07;2.83;;;;;;;3.51;69.38;98881.45;3662464;79;44112;-23
2021/04/08 18:32:06;;;;;;;5.30;2.90;;;;;;;3.45;68.86;98879.69;3676598;79;43676;-24
2021/04/08 18:37:12;;;;;;;4.83;2.83;;;;;;;3.34;68.97;98882.61;3659777;79;43348;-23
2021/04/08 18:42:18;;;;;;;4.07;2.93;;;;;;;3.21;70.72;98880.39;3663985;79;44494;-23
2021/04/08 18:47:24;;;;;;;5.20;2.73;;;;;;;3.05;72.05;98881.91;3657634;79;43593;-23
2021/04/08 18:52:32;;;;;;;5.60;3.23;;;;;;;2.81;74.23;98885.69;3651152;79;43721;-23
2021/04/08 18:57:38;;;;;;;5.20;2.90;;;;;;;2.65;73.89;98888.01;3659287;79;43697;-23
2021/04/08 19:02:48;;;;;;;4.57;2.60;;;;;;;2.48;76.46;98881.61;3647012;79;44015;-24
2021/04/08 19:07:54;;;;;;;5.47;2.80;;;;;;;2.26;79.30;98881.16;3673695;79;44058;-23
2021/04/08 19:13:00;;;;;;;3.90;2.90;;;;;;;2.17;80.73;98872.94;3669770;79;43673;-23
2021/04/08 19:18:07;;;;;;;5.57;3.43;;;;;;;2.08;78.37;98879.19;3662746;78;43088;-23
2021/04/08 19:23:13;;;;;;;6.93;3.70;;;;;;;2.00;80.56;98882.81;3720386;78;43718;-23
2021/04/08 19:28:18;;;;;;;4.57;3.10;;;;;;;1.91;80.78;98890.88;3720702;78;44074;-23
2021/04/08 19:33:25;;;;;;;6.07;3.03;;;;;;;1.78;81.02;98885.47;3691960;78;43340;-23
2021/04/08 19:38:31;;;;;;;4.70;3.10;;;;;;;1.74;81.42;98891.91;3689642;78;44588;-23
2021/04/08 19:43:38;;;;;;;6.57;3.27;;;;;;;1.64;82.32;98895.63;3628821;79;43432;-23
2021/04/08 19:48:43;;;;;;;4.43;3.17;;;;;;;1.57;82.77;98881.47;3632939;79;43677;-23
2021/04/08 19:53:49;;;;;;;5.47;3.60;;;;;;;1.47;83.43;98887.31;3630759;79;44074;-22
2021/04/08 19:58:55;;;;;;;5.70;3.60;;;;;;;1.31;83.97;98885.21;3644955;79;43662;-23
2021/04/08 20:04:02;;;;;;;6.67;3.57;;;;;;;1.12;85.56;98889.42;3703900;78;43456;-23
2021/04/08 20:09:08;;;;;;;5.37;3.67;;;;;;;1.04;87.00;98884.56;3705638;78;44079;-22
2021/04/08 20:14:14;;;;;;;8.03;3.93;;;;;;;0.88;87.96;98885.92;3697381;78;43681;-23
2021/04/08 20:19:20;;;;;;;5.33;3.50;;;;;;;0.82;88.62;98877.01;3688743;78;44074;-23
2021/04/08 20:24:26;;;;;;;5.73;3.23;;;;;;;0.80;89.00;98870.93;3683060;79;44043;-24
2021/04/08 20:29:32;;;;;;;4.90;2.93;;;;;;;0.74;89.39;98874.79;3670895;79;43741;-23
2021/04/08 20:34:38;;;;;;;6.03;3.30;;;;;;;0.67;90.30;98870.76;3668440;79;43377;-23
2021/04/08 20:39:44;;;;;;;7.30;2.70;;;;;;;0.58;90.41;98857.09;3671381;79;44113;-23
2021/04/08 20:44:50;;;;;;;3.07;2.60;;;;;;;0.55;90.93;98855.94;3586564;82;44631;-23
2021/04/08 20:49:56;;;;;;;5.27;3.00;;;;;;;0.59;89.76;98849.52;3684073;79;42997;-23
2021/04/08 20:55:04;;;;;;;7.43;2.90;;;;;;;0.63;88.77;98848.03;3654144;79;43734;-24
2021/04/08 21:00:12;;;;;;;4.43;2.73;;;;;;;0.57;89.24;98834.17;3683650;79;44168;-22
2021/04/08 21:05:19;;;;;;;3.73;2.77;;;;;;;0.54;90.15;98831.69;3672066;79;43727;-24
2021/04/08 21:10:25;;;;;;;6.23;3.03;;;;;;;0.52;90.21;98828.30;3652369;79;43401;-22
2021/04/08 21:15:31;;;;;;;7.47;3.10;;;;;;;0.51;89.78;98818.63;3691243;79;43443;-22
2021/04/08 21:20:36;;;;;;;5.93;2.83;;;;;;;0.54;89.00;98814.45;3668137;79;44049;-24
2021/04/08 21:25:42;;;;;;;6.23;2.73;;;;;;;0.52;89.06;98816.36;3676033;79;42541;-23
2021/04/08 21:30:48;;;;;;;8.73;2.63;;;;;;;0.52;88.21;98811.52;3688507;79;43319;-23
2021/04/08 21:35:54;;;;;;;5.60;3.10;;;;;;;0.57;87.18;98812.95;3670750;79;43396;-24
2021/04/08 21:41:03;;;;;;;5.63;2.63;;;;;;;0.56;88.15;98810.41;3659616;79;44610;-20
2021/04/08 21:46:08;;;;;;;5.93;2.97;;;;;;;0.33;90.12;98808.60;3683083;79;42757;-24
2021/04/08 21:51:14;;;;;;;6.47;2.90;;;;;;;0.30;90.65;98796.36;3679362;79;44076;-23
2021/04/08 21:56:20;;;;;;;3.50;2.70;;;;;;;0.25;91.29;98797.11;3669376;79;43664;-24
2021/04/08 22:01:26;;;;;;;5.27;3.00;;;;;;;0.17;92.68;98786.09;3670083;79;44018;-23
2021/04/08 22:06:33;;;;;;;5.13;2.93;;;;;;;0.12;92.55;98781.52;3669693;79;43673;-23
2021/04/08 22:11:39;;;;;;;7.00;3.00;;;;;;;0.02;95.06;98777.67;3663553;79;43721;-23
2021/04/08 22:16:45;;;;;;;4.13;3.10;;;;;;;-0.01;95.83;98778.22;3664725;79;43021;-23
2021/04/08 22:21:51;;;;;;;6.40;3.07;;;;;;;-0.01;95.95;98778.22;3666555;79;43998;-23
2021/04/08 22:26:57;;;;;;;5.57;2.80;;;;;;;-0.04;96.89;98777.55;3670017;79;43768;-21
2021/04/08 22:32:03;;;;;;;5.37;3.17;;;;;;;-0.08;97.33;98763.63;3605034;80;43681;-23
2021/04/08 22:37:10;;;;;;;6.83;3.20;;;;;;;-0.07;97.32;98762.69;3662517;79;43452;-23
2021/04/08 22:42:16;;;;;;;4.93;3.17;;;;;;;-0.06;97.37;98760.39;3653431;79;44068;-22
2021/04/08 22:47:22;;;;;;;5.83;2.93;;;;;;;-0.13;98.22;98746.28;3602596;80;43713;-24
2021/04/08 22:52:28;;;;;;;7.60;3.53;;;;;;;-0.22;99.81;98737.89;3656523;79;44426;-22
2021/04/08 22:57:35;;;;;;;4.47;3.07;;;;;;;-0.21;100.00;98744.05;3651236;79;43428;-20
2021/04/08 23:02:41;;;;;;;7.03;3.13;;;;;;;-0.16;99.86;98737.56;3590815;80;43348;-20
2021/04/08 23:07:47;;;;;;;7.13;3.07;;;;;;;-0.17;100.00;98731.01;3672543;79;43302;-19
2021/04/08 23:12:55;;;;;;;5.47;3.13;;;;;;;-0.17;100.00;98732.33;3662898;79;43492;-20
2021/04/08 23:18:02;;;;;;;6.13;3.40;;;;;;;-0.26;100.00;98716.97;3593849;80;43380;-23
2021/04/08 23:23:09;;;;;;;8.00;3.30;;;;;;;-0.17;100.00;98716.45;3717628;78;44468;-23
2021/04/08 23:28:14;;;;;;;6.00;3.70;;;;;;;-0.25;100.00;98710.28;3610869;80;42814;-19
2021/04/08 23:33:20;;;;;;;5.67;3.20;;;;;;;-0.17;100.00;98716.45;3708074;78;44690;-20
2021/04/08 23:38:26;;;;;;;5.57;3.10;;;;;;;-0.26;100.00;98711.67;3729221;78;44073;-23
2021/04/08 23:43:32;;;;;;;6.30;3.00;;;;;;;-0.20;100.00;98703.41;3716084;78;44447;-23
2021/04/08 23:48:38;;;;;;;4.37;2.97;;;;;;;-0.26;100.00;98695.78;3617142;80;44049;-23
2021/04/08 23:53:43;;;;;;;7.33;3.47;;;;;;;-0.22;100.00;98693.36;3715060;78;43724;-21
2021/04/08 23:58:49;;;;;;;8.50;3.53;;;;;;;-0.21;100.00;98682.67;3710430;78;43848;-22
